sensor_id;sensor_type;location;lat;lon;timestamp;P1;durP1;ratioP1;P2;durP2;ratioP2
41829;SDS011;38614;43.472;23.936;2023-02-18T00:00:02;61.63;;;22.58;;
41829;SDS011;38614;43.472;23.936;2023-02-18T00:02:51;76.18;;;23.55;;
41829;SDS011;38614;43.472;23.936;2023-02-18T00:05:42;61.35;;;21.95;;
41829;SDS011;38614;43.472;23.936;2023-02-18T00:08:30;58.17;;;20.80;;
41829;SDS011;38614;43.472;23.936;2023-02-18T00:11:18;60.00;;;21.58;;
41829;SDS011;38614;43.472;23.936;2023-02-18T00:14:10;57.50;;;20.73;;
41829;SDS011;38614;43.472;23.936;2023-02-18T00:17:00;63.90;;;23.95;;
41829;SDS011;38614;43.472;23.936;2023-02-18T00:19:47;58.20;;;20.55;;
41829;SDS011;38614;43.472;23.936;2023-02-18T00:22:35;47.63;;;20.70;;
41829;SDS011;38614;43.472;23.936;2023-02-18T00:25:23;48.22;;;20.23;;
41829;SDS011;38614;43.472;23.936;2023-02-18T00:28:11;43.33;;;20.23;;
41829;SDS011;38614;43.472;23.936;2023-02-18T00:31:04;43.35;;;18.85;;
41829;SDS011;38614;43.472;23.936;2023-02-18T00:33:53;31.73;;;16.13;;
41829;SDS011;38614;43.472;23.936;2023-02-18T00:36:42;39.25;;;16.55;;
41829;SDS011;38614;43.472;23.936;2023-02-18T00:39:30;34.00;;;15.93;;
41829;SDS011;38614;43.472;23.936;2023-02-18T00:42:18;31.45;;;14.07;;
41829;SDS011;38614;43.472;23.936;2023-02-18T00:45:06;31.05;;;14.80;;
41829;SDS011;38614;43.472;23.936;2023-02-18T00:47:54;36.90;;;16.10;;
41829;SDS011;38614;43.472;23.936;2023-02-18T00:50:42;34.28;;;15.88;;
41829;SDS011;38614;43.472;23.936;2023-02-18T00:53:30;30.25;;;14.85;;
41829;SDS011;38614;43.472;23.936;2023-02-18T00:56:19;29.80;;;14.30;;
41829;SDS011;38614;43.472;23.936;2023-02-18T00:59:07;35.28;;;15.63;;
41829;SDS011;38614;43.472;23.936;2023-02-18T01:01:55;33.85;;;13.95;;
41829;SDS011;38614;43.472;23.936;2023-02-18T01:04:43;33.63;;;14.40;;
41829;SDS011;38614;43.472;23.936;2023-02-18T01:07:30;32.70;;;14.88;;
41829;SDS011;38614;43.472;23.936;2023-02-18T01:10:20;50.53;;;19.27;;
41829;SDS011;38614;43.472;23.936;2023-02-18T01:13:08;30.77;;;17.65;;
41829;SDS011;38614;43.472;23.936;2023-02-18T01:15:57;39.47;;;18.63;;
41829;SDS011;38614;43.472;23.936;2023-02-18T01:18:48;43.67;;;17.98;;
41829;SDS011;38614;43.472;23.936;2023-02-18T01:21:36;32.75;;;15.43;;
41829;SDS011;38614;43.472;23.936;2023-02-18T01:24:23;36.25;;;15.30;;
41829;SDS011;38614;43.472;23.936;2023-02-18T01:27:11;36.72;;;15.70;;
41829;SDS011;38614;43.472;23.936;2023-02-18T01:30:00;39.90;;;18.23;;
41829;SDS011;38614;43.472;23.936;2023-02-18T01:32:48;42.28;;;17.00;;
41829;SDS011;38614;43.472;23.936;2023-02-18T01:35:37;42.33;;;16.67;;
41829;SDS011;38614;43.472;23.936;2023-02-18T01:38:26;32.28;;;16.42;;
41829;SDS011;38614;43.472;23.936;2023-02-18T01:41:14;45.15;;;19.73;;
41829;SDS011;38614;43.472;23.936;2023-02-18T01:47:06;38.17;;;18.17;;
41829;SDS011;38614;43.472;23.936;2023-02-18T01:49:53;39.70;;;18.50;;
41829;SDS011;38614;43.472;23.936;2023-02-18T01:52:42;36.65;;;15.98;;
41829;SDS011;38614;43.472;23.936;2023-02-18T01:55:30;34.40;;;16.80;;
41829;SDS011;38614;43.472;23.936;2023-02-18T01:58:19;33.55;;;15.00;;
41829;SDS011;38614;43.472;23.936;2023-02-18T02:01:07;43.22;;;16.95;;
41829;SDS011;38614;43.472;23.936;2023-02-18T02:03:56;36.25;;;14.88;;
41829;SDS011;38614;43.472;23.936;2023-02-18T02:06:44;34.80;;;17.00;;
41829;SDS011;38614;43.472;23.936;2023-02-18T02:09:31;40.40;;;17.17;;
41829;SDS011;38614;43.472;23.936;2023-02-18T02:31:03;28.67;;;13.73;;
41829;SDS011;38614;43.472;23.936;2023-02-18T02:37:30;24.83;;;12.70;;
41829;SDS011;38614;43.472;23.936;2023-02-18T02:46:56;32.20;;;13.93;;
41829;SDS011;38614;43.472;23.936;2023-02-18T02:50:05;29.88;;;13.50;;
41829;SDS011;38614;43.472;23.936;2023-02-18T02:53:02;28.55;;;12.90;;
41829;SDS011;38614;43.472;23.936;2023-02-18T02:56:02;31.55;;;11.88;;
41829;SDS011;38614;43.472;23.936;2023-02-18T02:58:58;25.65;;;12.27;;
41829;SDS011;38614;43.472;23.936;2023-02-18T03:02:02;28.05;;;12.80;;
41829;SDS011;38614;43.472;23.936;2023-02-18T03:08:11;31.60;;;12.30;;
41829;SDS011;38614;43.472;23.936;2023-02-18T03:17:18;27.88;;;13.10;;
41829;SDS011;38614;43.472;23.936;2023-02-18T03:20:34;25.58;;;12.73;;
41829;SDS011;38614;43.472;23.936;2023-02-18T03:23:30;25.55;;;12.68;;
41829;SDS011;38614;43.472;23.936;2023-02-18T03:26:23;24.30;;;12.52;;
41829;SDS011;38614;43.472;23.936;2023-02-18T03:29:14;22.02;;;12.65;;
41829;SDS011;38614;43.472;23.936;2023-02-18T03:32:06;38.45;;;12.80;;
41829;SDS011;38614;43.472;23.936;2023-02-18T03:35:00;27.63;;;12.27;;
41829;SDS011;38614;43.472;23.936;2023-02-18T03:38:03;30.88;;;13.25;;
41829;SDS011;38614;43.472;23.936;2023-02-18T03:40:59;32.08;;;16.73;;
41829;SDS011;38614;43.472;23.936;2023-02-18T03:43:50;32.88;;;15.95;;
41829;SDS011;38614;43.472;23.936;2023-02-18T03:46:40;29.27;;;17.40;;
41829;SDS011;38614;43.472;23.936;2023-02-18T03:52:20;37.30;;;17.27;;
41829;SDS011;38614;43.472;23.936;2023-02-18T03:55:19;32.33;;;16.23;;
41829;SDS011;38614;43.472;23.936;2023-02-18T04:01:31;24.90;;;13.32;;
41829;SDS011;38614;43.472;23.936;2023-02-18T04:04:18;22.88;;;13.80;;
41829;SDS011;38614;43.472;23.936;2023-02-18T04:07:06;26.10;;;15.23;;
41829;SDS011;38614;43.472;23.936;2023-02-18T04:09:54;34.47;;;15.43;;
41829;SDS011;38614;43.472;23.936;2023-02-18T04:12:42;29.67;;;15.43;;
41829;SDS011;38614;43.472;23.936;2023-02-18T04:15:29;24.20;;;12.90;;
41829;SDS011;38614;43.472;23.936;2023-02-18T04:18:21;26.98;;;16.13;;
41829;SDS011;38614;43.472;23.936;2023-02-18T04:21:09;33.30;;;15.57;;
41829;SDS011;38614;43.472;23.936;2023-02-18T04:23:57;31.58;;;15.95;;
41829;SDS011;38614;43.472;23.936;2023-02-18T04:26:47;35.30;;;16.65;;
41829;SDS011;38614;43.472;23.936;2023-02-18T04:29:35;33.38;;;15.27;;
41829;SDS011;38614;43.472;23.936;2023-02-18T04:32:23;30.35;;;16.13;;
41829;SDS011;38614;43.472;23.936;2023-02-18T04:35:10;37.92;;;19.60;;
41829;SDS011;38614;43.472;23.936;2023-02-18T04:37:58;41.13;;;21.05;;
41829;SDS011;38614;43.472;23.936;2023-02-18T04:40:46;43.72;;;20.90;;
41829;SDS011;38614;43.472;23.936;2023-02-18T04:43:37;43.20;;;20.33;;
41829;SDS011;38614;43.472;23.936;2023-02-18T04:46:25;46.67;;;21.80;;
41829;SDS011;38614;43.472;23.936;2023-02-18T04:49:12;46.80;;;21.73;;
41829;SDS011;38614;43.472;23.936;2023-02-18T04:52:00;59.88;;;24.90;;
41829;SDS011;38614;43.472;23.936;2023-02-18T04:54:48;55.33;;;26.95;;
41829;SDS011;38614;43.472;23.936;2023-02-18T04:57:36;68.00;;;24.77;;
41829;SDS011;38614;43.472;23.936;2023-02-18T05:00:24;51.85;;;23.08;;
41829;SDS011;38614;43.472;23.936;2023-02-18T05:03:13;28.42;;;15.55;;
41829;SDS011;38614;43.472;23.936;2023-02-18T05:06:01;38.08;;;18.30;;
41829;SDS011;38614;43.472;23.936;2023-02-18T05:08:49;33.85;;;16.92;;
41829;SDS011;38614;43.472;23.936;2023-02-18T05:11:37;36.70;;;18.10;;
41829;SDS011;38614;43.472;23.936;2023-02-18T05:14:25;40.03;;;19.30;;
41829;SDS011;38614;43.472;23.936;2023-02-18T05:17:12;40.85;;;19.85;;
41829;SDS011;38614;43.472;23.936;2023-02-18T05:20:00;38.90;;;20.08;;
41829;SDS011;38614;43.472;23.936;2023-02-18T05:22:51;49.63;;;22.30;;
41829;SDS011;38614;43.472;23.936;2023-02-18T05:25:38;85.00;;;33.15;;
41829;SDS011;38614;43.472;23.936;2023-02-18T05:28:26;69.82;;;29.10;;
41829;SDS011;38614;43.472;23.936;2023-02-18T05:31:14;134.85;;;49.47;;
41829;SDS011;38614;43.472;23.936;2023-02-18T05:34:02;63.28;;;27.55;;
41829;SDS011;38614;43.472;23.936;2023-02-18T05:36:50;44.33;;;22.52;;
41829;SDS011;38614;43.472;23.936;2023-02-18T05:39:38;49.78;;;21.80;;
41829;SDS011;38614;43.472;23.936;2023-02-18T05:42:27;104.72;;;36.67;;
41829;SDS011;38614;43.472;23.936;2023-02-18T05:45:19;65.68;;;28.92;;
41829;SDS011;38614;43.472;23.936;2023-02-18T05:48:06;56.17;;;24.85;;
41829;SDS011;38614;43.472;23.936;2023-02-18T05:50:54;47.70;;;20.35;;
41829;SDS011;38614;43.472;23.936;2023-02-18T05:53:42;38.95;;;17.15;;
41829;SDS011;38614;43.472;23.936;2023-02-18T05:56:29;27.35;;;13.80;;
41829;SDS011;38614;43.472;23.936;2023-02-18T05:59:17;26.27;;;14.00;;
41829;SDS011;38614;43.472;23.936;2023-02-18T06:02:05;27.75;;;12.77;;
41829;SDS011;38614;43.472;23.936;2023-02-18T06:04:53;33.03;;;14.18;;
41829;SDS011;38614;43.472;23.936;2023-02-18T06:07:41;32.35;;;15.13;;
41829;SDS011;38614;43.472;23.936;2023-02-18T06:10:28;33.28;;;16.40;;
41829;SDS011;38614;43.472;23.936;2023-02-18T06:13:25;41.53;;;16.65;;
41829;SDS011;38614;43.472;23.936;2023-02-18T06:16:13;32.88;;;14.73;;
41829;SDS011;38614;43.472;23.936;2023-02-18T06:19:00;39.75;;;15.15;;
41829;SDS011;38614;43.472;23.936;2023-02-18T06:21:48;36.83;;;16.77;;
41829;SDS011;38614;43.472;23.936;2023-02-18T06:24:36;29.67;;;15.25;;
41829;SDS011;38614;43.472;23.936;2023-02-18T06:27:27;36.13;;;17.67;;
41829;SDS011;38614;43.472;23.936;2023-02-18T06:30:16;28.90;;;17.63;;
41829;SDS011;38614;43.472;23.936;2023-02-18T06:33:04;33.50;;;18.40;;
41829;SDS011;38614;43.472;23.936;2023-02-18T06:35:55;40.78;;;19.33;;
41829;SDS011;38614;43.472;23.936;2023-02-18T06:38:45;42.30;;;21.30;;
41829;SDS011;38614;43.472;23.936;2023-02-18T06:41:33;37.63;;;22.25;;
41829;SDS011;38614;43.472;23.936;2023-02-18T06:44:21;51.60;;;22.60;;
41829;SDS011;38614;43.472;23.936;2023-02-18T06:47:09;49.50;;;21.88;;
41829;SDS011;38614;43.472;23.936;2023-02-18T06:49:56;42.33;;;21.90;;
41829;SDS011;38614;43.472;23.936;2023-02-18T06:52:47;45.38;;;22.83;;
41829;SDS011;38614;43.472;23.936;2023-02-18T06:55:40;46.20;;;25.90;;
41829;SDS011;38614;43.472;23.936;2023-02-18T06:58:29;55.70;;;24.35;;
41829;SDS011;38614;43.472;23.936;2023-02-18T07:01:17;52.70;;;25.25;;
41829;SDS011;38614;43.472;23.936;2023-02-18T07:04:05;49.58;;;26.98;;
41829;SDS011;38614;43.472;23.936;2023-02-18T07:06:53;55.78;;;27.23;;
41829;SDS011;38614;43.472;23.936;2023-02-18T07:09:41;60.88;;;29.75;;
41829;SDS011;38614;43.472;23.936;2023-02-18T07:12:29;68.97;;;33.22;;
41829;SDS011;38614;43.472;23.936;2023-02-18T07:15:17;65.78;;;32.08;;
41829;SDS011;38614;43.472;23.936;2023-02-18T07:18:07;63.35;;;30.58;;
41829;SDS011;38614;43.472;23.936;2023-02-18T07:20:55;71.72;;;32.63;;
41829;SDS011;38614;43.472;23.936;2023-02-18T07:23:43;64.30;;;34.08;;
41829;SDS011;38614;43.472;23.936;2023-02-18T07:26:30;64.30;;;29.17;;
41829;SDS011;38614;43.472;23.936;2023-02-18T07:29:18;46.17;;;22.05;;
41829;SDS011;38614;43.472;23.936;2023-02-18T07:32:12;16.73;;;5.38;;
41829;SDS011;38614;43.472;23.936;2023-02-18T07:35:02;7.45;;;3.25;;
41829;SDS011;38614;43.472;23.936;2023-02-18T07:37:50;29.05;;;7.88;;
41829;SDS011;38614;43.472;23.936;2023-02-18T07:40:41;10.50;;;4.57;;
41829;SDS011;38614;43.472;23.936;2023-02-18T07:43:31;20.83;;;7.68;;
41829;SDS011;38614;43.472;23.936;2023-02-18T07:46:19;15.43;;;6.15;;
41829;SDS011;38614;43.472;23.936;2023-02-18T07:49:07;21.65;;;7.43;;
41829;SDS011;38614;43.472;23.936;2023-02-18T07:51:55;15.35;;;6.07;;
41829;SDS011;38614;43.472;23.936;2023-02-18T07:54:43;13.77;;;6.30;;
41829;SDS011;38614;43.472;23.936;2023-02-18T07:57:31;8.43;;;3.80;;
41829;SDS011;38614;43.472;23.936;2023-02-18T08:00:18;19.48;;;9.95;;
41829;SDS011;38614;43.472;23.936;2023-02-18T08:03:06;8.55;;;3.58;;
41829;SDS011;38614;43.472;23.936;2023-02-18T08:05:55;6.97;;;3.30;;
41829;SDS011;38614;43.472;23.936;2023-02-18T08:08:43;8.10;;;3.15;;
41829;SDS011;38614;43.472;23.936;2023-02-18T08:11:31;5.55;;;2.13;;
41829;SDS011;38614;43.472;23.936;2023-02-18T08:14:19;4.65;;;1.65;;
41829;SDS011;38614;43.472;23.936;2023-02-18T08:17:07;5.40;;;1.30;;
41829;SDS011;38614;43.472;23.936;2023-02-18T08:19:54;9.27;;;1.55;;
41829;SDS011;38614;43.472;23.936;2023-02-18T08:22:43;3.80;;;1.20;;
41829;SDS011;38614;43.472;23.936;2023-02-18T08:25:31;3.33;;;1.10;;
41829;SDS011;38614;43.472;23.936;2023-02-18T08:28:20;0.95;;;0.70;;
41829;SDS011;38614;43.472;23.936;2023-02-18T08:31:18;3.83;;;1.42;;
41829;SDS011;38614;43.472;23.936;2023-02-18T08:34:11;5.18;;;1.15;;
41829;SDS011;38614;43.472;23.936;2023-02-18T08:37:00;2.30;;;1.60;;
41829;SDS011;38614;43.472;23.936;2023-02-18T08:39:48;3.15;;;1.45;;
41829;SDS011;38614;43.472;23.936;2023-02-18T08:42:39;4.60;;;2.15;;
41829;SDS011;38614;43.472;23.936;2023-02-18T08:45:26;4.22;;;1.65;;
41829;SDS011;38614;43.472;23.936;2023-02-18T08:48:14;5.22;;;1.65;;
41829;SDS011;38614;43.472;23.936;2023-02-18T08:51:13;2.55;;;1.52;;
41829;SDS011;38614;43.472;23.936;2023-02-18T08:54:04;4.22;;;1.90;;
41829;SDS011;38614;43.472;23.936;2023-02-18T08:56:55;6.30;;;1.25;;
41829;SDS011;38614;43.472;23.936;2023-02-18T08:59:46;3.17;;;1.35;;
41829;SDS011;38614;43.472;23.936;2023-02-18T09:02:34;3.92;;;1.40;;
41829;SDS011;38614;43.472;23.936;2023-02-18T09:05:22;2.88;;;1.23;;
41829;SDS011;38614;43.472;23.936;2023-02-18T09:08:13;6.10;;;1.77;;
41829;SDS011;38614;43.472;23.936;2023-02-18T09:11:01;4.68;;;1.55;;
41829;SDS011;38614;43.472;23.936;2023-02-18T09:13:50;5.50;;;1.13;;
41829;SDS011;38614;43.472;23.936;2023-02-18T09:16:38;3.38;;;0.95;;
41829;SDS011;38614;43.472;23.936;2023-02-18T09:19:27;3.70;;;1.55;;
41829;SDS011;38614;43.472;23.936;2023-02-18T09:22:15;8.02;;;1.00;;
41829;SDS011;38614;43.472;23.936;2023-02-18T09:25:03;9.02;;;1.05;;
41829;SDS011;38614;43.472;23.936;2023-02-18T09:27:51;5.47;;;1.35;;
41829;SDS011;38614;43.472;23.936;2023-02-18T09:30:38;2.42;;;0.70;;
41829;SDS011;38614;43.472;23.936;2023-02-18T09:33:26;4.50;;;1.20;;
41829;SDS011;38614;43.472;23.936;2023-02-18T09:36:14;3.03;;;1.00;;
41829;SDS011;38614;43.472;23.936;2023-02-18T09:39:02;7.32;;;1.77;;
41829;SDS011;38614;43.472;23.936;2023-02-18T09:41:51;1.80;;;0.90;;
41829;SDS011;38614;43.472;23.936;2023-02-18T09:44:43;10.88;;;1.98;;
41829;SDS011;38614;43.472;23.936;2023-02-18T09:47:39;7.70;;;1.73;;
41829;SDS011;38614;43.472;23.936;2023-02-18T09:50:32;7.90;;;3.50;;
41829;SDS011;38614;43.472;23.936;2023-02-18T09:53:23;9.48;;;3.55;;
41829;SDS011;38614;43.472;23.936;2023-02-18T09:56:15;4.90;;;2.58;;
41829;SDS011;38614;43.472;23.936;2023-02-18T09:59:12;12.10;;;5.10;;
41829;SDS011;38614;43.472;23.936;2023-02-18T10:02:05;5.30;;;2.25;;
41829;SDS011;38614;43.472;23.936;2023-02-18T10:05:05;10.38;;;2.10;;
41829;SDS011;38614;43.472;23.936;2023-02-18T10:08:01;5.43;;;1.88;;
41829;SDS011;38614;43.472;23.936;2023-02-18T10:10:54;2.28;;;1.17;;
41829;SDS011;38614;43.472;23.936;2023-02-18T10:13:42;3.00;;;1.70;;
41829;SDS011;38614;43.472;23.936;2023-02-18T10:16:32;8.38;;;2.03;;
41829;SDS011;38614;43.472;23.936;2023-02-18T10:19:22;5.40;;;1.35;;
41829;SDS011;38614;43.472;23.936;2023-02-18T10:22:21;4.18;;;2.00;;
41829;SDS011;38614;43.472;23.936;2023-02-18T10:25:16;5.45;;;2.03;;
41829;SDS011;38614;43.472;23.936;2023-02-18T10:28:07;2.90;;;1.00;;
41829;SDS011;38614;43.472;23.936;2023-02-18T10:31:07;5.60;;;1.67;;
41829;SDS011;38614;43.472;23.936;2023-02-18T10:52:48;3.05;;;1.35;;
41829;SDS011;38614;43.472;23.936;2023-02-18T10:55:44;4.88;;;1.73;;
41829;SDS011;38614;43.472;23.936;2023-02-18T11:01:33;3.75;;;1.42;;
41829;SDS011;38614;43.472;23.936;2023-02-18T11:04:22;5.35;;;1.00;;
41829;SDS011;38614;43.472;23.936;2023-02-18T11:07:21;4.20;;;1.60;;
41829;SDS011;38614;43.472;23.936;2023-02-18T11:10:17;17.70;;;2.00;;
41829;SDS011;38614;43.472;23.936;2023-02-18T11:13:14;3.85;;;1.45;;
41829;SDS011;38614;43.472;23.936;2023-02-18T11:16:09;4.47;;;1.65;;
41829;SDS011;38614;43.472;23.936;2023-02-18T11:18:58;5.05;;;1.33;;
41829;SDS011;38614;43.472;23.936;2023-02-18T11:21:50;1.55;;;0.85;;
41829;SDS011;38614;43.472;23.936;2023-02-18T11:24:38;2.80;;;0.93;;
41829;SDS011;38614;43.472;23.936;2023-02-18T11:30:40;3.13;;;1.17;;
41829;SDS011;38614;43.472;23.936;2023-02-18T11:33:32;2.50;;;1.42;;
41829;SDS011;38614;43.472;23.936;2023-02-18T11:36:34;9.57;;;1.17;;
41829;SDS011;38614;43.472;23.936;2023-02-18T11:39:26;5.53;;;1.27;;
41829;SDS011;38614;43.472;23.936;2023-02-18T11:42:17;4.45;;;1.30;;
41829;SDS011;38614;43.472;23.936;2023-02-18T11:45:24;2.72;;;1.73;;
41829;SDS011;38614;43.472;23.936;2023-02-18T11:48:22;9.20;;;1.90;;
41829;SDS011;38614;43.472;23.936;2023-02-18T11:51:14;4.85;;;1.55;;
41829;SDS011;38614;43.472;23.936;2023-02-18T11:54:03;3.05;;;1.23;;
41829;SDS011;38614;43.472;23.936;2023-02-18T11:57:11;2.78;;;1.08;;
41829;SDS011;38614;43.472;23.936;2023-02-18T12:02:54;2.75;;;1.13;;
41829;SDS011;38614;43.472;23.936;2023-02-18T12:05:45;2.88;;;1.85;;
41829;SDS011;38614;43.472;23.936;2023-02-18T12:08:36;1.27;;;0.70;;
41829;SDS011;38614;43.472;23.936;2023-02-18T12:11:35;2.65;;;0.80;;
41829;SDS011;38614;43.472;23.936;2023-02-18T12:14:37;7.63;;;1.15;;
41829;SDS011;38614;43.472;23.936;2023-02-18T12:24:05;2.38;;;1.50;;
41829;SDS011;38614;43.472;23.936;2023-02-18T12:27:07;4.00;;;1.70;;
41829;SDS011;38614;43.472;23.936;2023-02-18T12:39:20;3.58;;;1.92;;
41829;SDS011;38614;43.472;23.936;2023-02-18T12:55:03;6.05;;;1.35;;
41829;SDS011;38614;43.472;23.936;2023-02-18T13:10:14;3.30;;;1.52;;
41829;SDS011;38614;43.472;23.936;2023-02-18T13:13:36;4.40;;;1.88;;
41829;SDS011;38614;43.472;23.936;2023-02-18T13:16:38;3.78;;;1.65;;
41829;SDS011;38614;43.472;23.936;2023-02-18T13:19:30;4.75;;;1.67;;
41829;SDS011;38614;43.472;23.936;2023-02-18T13:22:26;2.90;;;1.45;;
41829;SDS011;38614;43.472;23.936;2023-02-18T13:25:16;3.17;;;1.00;;
41829;SDS011;38614;43.472;23.936;2023-02-18T13:28:22;4.20;;;1.38;;
41829;SDS011;38614;43.472;23.936;2023-02-18T13:32:00;4.85;;;1.42;;
41829;SDS011;38614;43.472;23.936;2023-02-18T13:40:40;4.90;;;1.58;;
41829;SDS011;38614;43.472;23.936;2023-02-18T13:43:32;3.50;;;1.50;;
41829;SDS011;38614;43.472;23.936;2023-02-18T13:46:24;2.08;;;1.50;;
41829;SDS011;38614;43.472;23.936;2023-02-18T13:49:13;8.77;;;1.52;;
41829;SDS011;38614;43.472;23.936;2023-02-18T13:52:14;4.50;;;1.45;;
41829;SDS011;38614;43.472;23.936;2023-02-18T13:55:13;5.00;;;1.88;;
41829;SDS011;38614;43.472;23.936;2023-02-18T13:58:18;3.28;;;1.17;;
41829;SDS011;38614;43.472;23.936;2023-02-18T14:10:33;2.90;;;1.52;;
41829;SDS011;38614;43.472;23.936;2023-02-18T14:13:23;4.53;;;1.90;;
41829;SDS011;38614;43.472;23.936;2023-02-18T14:16:24;5.20;;;1.65;;
41829;SDS011;38614;43.472;23.936;2023-02-18T14:19:26;7.53;;;2.78;;
41829;SDS011;38614;43.472;23.936;2023-02-18T14:22:28;2.13;;;1.67;;
41829;SDS011;38614;43.472;23.936;2023-02-18T14:25:38;7.88;;;2.38;;
41829;SDS011;38614;43.472;23.936;2023-02-18T14:31:27;7.75;;;2.63;;
41829;SDS011;38614;43.472;23.936;2023-02-18T14:40:25;7.35;;;1.48;;
41829;SDS011;38614;43.472;23.936;2023-02-18T14:43:30;2.25;;;1.70;;
41829;SDS011;38614;43.472;23.936;2023-02-18T14:49:51;3.72;;;1.77;;
41829;SDS011;38614;43.472;23.936;2023-02-18T14:52:42;5.55;;;1.77;;
41829;SDS011;38614;43.472;23.936;2023-02-18T14:55:34;3.38;;;1.75;;
41829;SDS011;38614;43.472;23.936;2023-02-18T14:58:32;4.30;;;1.40;;
41829;SDS011;38614;43.472;23.936;2023-02-18T15:01:27;2.97;;;1.23;;
41829;SDS011;38614;43.472;23.936;2023-02-18T15:04:16;5.85;;;1.98;;
41829;SDS011;38614;43.472;23.936;2023-02-18T15:07:07;3.13;;;1.33;;
41829;SDS011;38614;43.472;23.936;2023-02-18T15:09:56;1.77;;;1.17;;
41829;SDS011;38614;43.472;23.936;2023-02-18T15:12:43;5.97;;;1.25;;
41829;SDS011;38614;43.472;23.936;2023-02-18T15:15:31;2.50;;;0.70;;
41829;SDS011;38614;43.472;23.936;2023-02-18T15:18:35;10.07;;;2.10;;
41829;SDS011;38614;43.472;23.936;2023-02-18T15:21:38;2.92;;;1.33;;
41829;SDS011;38614;43.472;23.936;2023-02-18T15:24:32;3.20;;;1.48;;
41829;SDS011;38614;43.472;23.936;2023-02-18T15:27:27;2.90;;;1.50;;
41829;SDS011;38614;43.472;23.936;2023-02-18T15:33:14;4.53;;;1.63;;
41829;SDS011;38614;43.472;23.936;2023-02-18T15:36:11;6.05;;;1.80;;
41829;SDS011;38614;43.472;23.936;2023-02-18T15:39:00;5.60;;;1.40;;
41829;SDS011;38614;43.472;23.936;2023-02-18T15:42:33;3.22;;;1.75;;
41829;SDS011;38614;43.472;23.936;2023-02-18T15:48:06;15.27;;;4.97;;
41829;SDS011;38614;43.472;23.936;2023-02-18T15:51:09;22.67;;;7.03;;
41829;SDS011;38614;43.472;23.936;2023-02-18T15:54:03;28.50;;;9.20;;
41829;SDS011;38614;43.472;23.936;2023-02-18T15:56:52;27.63;;;10.30;;
41829;SDS011;38614;43.472;23.936;2023-02-18T15:59:46;20.85;;;7.18;;
41829;SDS011;38614;43.472;23.936;2023-02-18T16:06:25;8.57;;;4.22;;
41829;SDS011;38614;43.472;23.936;2023-02-18T16:12:13;12.88;;;5.80;;
41829;SDS011;38614;43.472;23.936;2023-02-18T16:15:16;16.63;;;5.28;;
41829;SDS011;38614;43.472;23.936;2023-02-18T16:18:22;14.73;;;6.13;;
41829;SDS011;38614;43.472;23.936;2023-02-18T16:27:31;8.77;;;4.43;;
41829;SDS011;38614;43.472;23.936;2023-02-18T16:30:30;19.95;;;6.38;;
41829;SDS011;38614;43.472;23.936;2023-02-18T16:33:21;18.02;;;7.15;;
41829;SDS011;38614;43.472;23.936;2023-02-18T16:36:11;13.85;;;5.10;;
41829;SDS011;38614;43.472;23.936;2023-02-18T16:39:01;5.10;;;3.45;;
41829;SDS011;38614;43.472;23.936;2023-02-18T16:41:49;7.18;;;4.00;;
41829;SDS011;38614;43.472;23.936;2023-02-18T16:44:37;4.50;;;2.40;;
41829;SDS011;38614;43.472;23.936;2023-02-18T16:47:26;4.13;;;1.67;;
41829;SDS011;38614;43.472;23.936;2023-02-18T16:50:22;8.85;;;2.92;;
41829;SDS011;38614;43.472;23.936;2023-02-18T16:53:16;4.53;;;2.22;;
41829;SDS011;38614;43.472;23.936;2023-02-18T16:56:20;9.87;;;2.77;;
41829;SDS011;38614;43.472;23.936;2023-02-18T16:59:23;7.32;;;3.05;;
41829;SDS011;38614;43.472;23.936;2023-02-18T17:02:14;3.70;;;2.22;;
41829;SDS011;38614;43.472;23.936;2023-02-18T17:05:09;9.45;;;3.15;;
41829;SDS011;38614;43.472;23.936;2023-02-18T17:08:19;5.38;;;2.85;;
41829;SDS011;38614;43.472;23.936;2023-02-18T17:11:17;10.85;;;2.22;;
41829;SDS011;38614;43.472;23.936;2023-02-18T17:14:08;2.53;;;1.92;;
41829;SDS011;38614;43.472;23.936;2023-02-18T17:17:00;11.73;;;5.50;;
41829;SDS011;38614;43.472;23.936;2023-02-18T17:19:48;10.32;;;4.45;;
41829;SDS011;38614;43.472;23.936;2023-02-18T17:22:36;6.72;;;3.47;;
41829;SDS011;38614;43.472;23.936;2023-02-18T17:25:29;9.13;;;4.95;;
41829;SDS011;38614;43.472;23.936;2023-02-18T17:28:19;11.32;;;4.97;;
41829;SDS011;38614;43.472;23.936;2023-02-18T17:31:08;18.00;;;5.95;;
41829;SDS011;38614;43.472;23.936;2023-02-18T17:34:05;30.73;;;10.13;;
41829;SDS011;38614;43.472;23.936;2023-02-18T17:36:55;41.83;;;20.25;;
41829;SDS011;38614;43.472;23.936;2023-02-18T17:39:43;24.33;;;13.52;;
41829;SDS011;38614;43.472;23.936;2023-02-18T17:42:33;17.02;;;10.05;;
41829;SDS011;38614;43.472;23.936;2023-02-18T17:45:33;19.23;;;9.93;;
41829;SDS011;38614;43.472;23.936;2023-02-18T17:48:23;28.95;;;11.45;;
41829;SDS011;38614;43.472;23.936;2023-02-18T17:51:26;34.75;;;13.35;;
41829;SDS011;38614;43.472;23.936;2023-02-18T17:54:24;25.67;;;10.73;;
41829;SDS011;38614;43.472;23.936;2023-02-18T17:57:14;24.10;;;7.45;;
41829;SDS011;38614;43.472;23.936;2023-02-18T18:00:02;10.98;;;5.53;;
41829;SDS011;38614;43.472;23.936;2023-02-18T18:02:53;7.70;;;3.85;;
41829;SDS011;38614;43.472;23.936;2023-02-18T18:05:43;8.15;;;3.72;;
41829;SDS011;38614;43.472;23.936;2023-02-18T18:08:34;4.43;;;2.28;;
41829;SDS011;38614;43.472;23.936;2023-02-18T18:11:23;6.05;;;2.42;;
41829;SDS011;38614;43.472;23.936;2023-02-18T18:14:12;7.28;;;3.35;;
41829;SDS011;38614;43.472;23.936;2023-02-18T18:17:01;8.00;;;2.97;;
41829;SDS011;38614;43.472;23.936;2023-02-18T18:19:49;7.30;;;3.70;;
41829;SDS011;38614;43.472;23.936;2023-02-18T18:22:36;11.93;;;5.25;;
41829;SDS011;38614;43.472;23.936;2023-02-18T18:25:38;10.70;;;4.88;;
41829;SDS011;38614;43.472;23.936;2023-02-18T18:28:27;9.60;;;4.50;;
41829;SDS011;38614;43.472;23.936;2023-02-18T18:31:19;11.10;;;3.95;;
41829;SDS011;38614;43.472;23.936;2023-02-18T18:34:07;6.05;;;3.08;;
41829;SDS011;38614;43.472;23.936;2023-02-18T18:36:56;12.80;;;4.82;;
41829;SDS011;38614;43.472;23.936;2023-02-18T18:39:44;12.88;;;6.63;;
41829;SDS011;38614;43.472;23.936;2023-02-18T18:42:32;19.05;;;8.75;;
41829;SDS011;38614;43.472;23.936;2023-02-18T18:45:21;19.35;;;8.50;;
41829;SDS011;38614;43.472;23.936;2023-02-18T18:48:13;15.75;;;7.53;;
41829;SDS011;38614;43.472;23.936;2023-02-18T18:51:01;28.10;;;10.35;;
41829;SDS011;38614;43.472;23.936;2023-02-18T18:53:49;17.60;;;9.45;;
41829;SDS011;38614;43.472;23.936;2023-02-18T18:56:36;25.35;;;8.23;;
41829;SDS011;38614;43.472;23.936;2023-02-18T18:59:24;23.77;;;11.57;;
41829;SDS011;38614;43.472;23.936;2023-02-18T19:02:15;48.10;;;19.67;;
41829;SDS011;38614;43.472;23.936;2023-02-18T19:05:03;18.75;;;7.95;;
41829;SDS011;38614;43.472;23.936;2023-02-18T19:07:51;35.42;;;15.70;;
41829;SDS011;38614;43.472;23.936;2023-02-18T19:10:40;162.63;;;47.67;;
41829;SDS011;38614;43.472;23.936;2023-02-18T19:13:30;183.35;;;56.20;;
41829;SDS011;38614;43.472;23.936;2023-02-18T19:16:20;101.72;;;32.22;;
41829;SDS011;38614;43.472;23.936;2023-02-18T19:19:14;90.20;;;27.42;;
41829;SDS011;38614;43.472;23.936;2023-02-18T19:22:02;69.60;;;23.30;;
41829;SDS011;38614;43.472;23.936;2023-02-18T19:24:49;45.28;;;17.23;;